createdAt,value
2019-05-14T00:00:02.230Z,2.40
2019-05-14T00:01:03.400Z,2.40
2019-05-14T00:02:02.746Z,2.30
2019-05-14T00:03:02.486Z,2.60
2019-05-14T00:04:02.191Z,2.20
2019-05-14T00:05:02.124Z,2.10
2019-05-14T00:06:02.371Z,2.30
2019-05-14T00:07:02.073Z,2.20
2019-05-14T00:08:02.366Z,2.20
2019-05-14T00:09:02.020Z,2.30
2019-05-14T00:10:02.008Z,2.70
2019-05-14T00:11:01.974Z,2.20
2019-05-14T00:12:02.769Z,2.70
2019-05-14T00:13:01.930Z,2.30
2019-05-14T00:14:01.908Z,2.70
2019-05-14T00:15:02.282Z,2.60
2019-05-14T00:16:01.863Z,2.60
2019-05-14T00:17:01.858Z,2.70
2019-05-14T00:18:01.824Z,2.80
2019-05-14T00:19:01.801Z,2.60
2019-05-14T00:20:09.249Z,2.60
2019-05-14T00:21:02.155Z,2.50
2019-05-14T00:22:02.149Z,2.40
2019-05-14T00:23:01.706Z,2.70
2019-05-14T00:24:01.931Z,2.50
2019-05-14T00:25:01.663Z,3.00
2019-05-14T00:26:02.013Z,2.80
2019-05-14T00:27:02.157Z,2.80
2019-05-14T00:28:01.596Z,2.80
2019-05-14T00:29:01.760Z,2.50
2019-05-14T00:30:02.436Z,2.80
2019-05-14T00:31:02.952Z,2.60
2019-05-14T00:32:02.004Z,3.30
2019-05-14T00:33:01.489Z,2.60
2019-05-14T00:34:01.835Z,3.10
2019-05-14T00:35:02.152Z,3.40
2019-05-14T00:36:02.063Z,2.60
2019-05-14T00:37:01.702Z,2.80
2019-05-14T00:38:01.508Z,3.20
2019-05-14T00:39:01.857Z,3.40
2019-05-14T00:40:01.589Z,2.70
2019-05-14T00:41:01.941Z,3.10
2019-05-14T00:42:01.799Z,3.70
2019-05-14T00:43:02.639Z,3.30
2019-05-14T00:44:01.938Z,3.40
2019-05-14T00:45:01.355Z,3.40
2019-05-14T00:46:01.656Z,3.10
2019-05-14T00:47:02.164Z,3.30
2019-05-14T00:48:01.605Z,2.90
2019-05-14T00:49:01.780Z,3.10
2019-05-14T00:50:02.223Z,3.10
2019-05-14T00:51:02.276Z,3.70
2019-05-14T00:52:02.277Z,3.30
2019-05-14T00:53:02.011Z,3.50
2019-05-14T00:54:01.717Z,3.20
2019-05-14T00:55:01.218Z,3.00
2019-05-14T00:56:02.172Z,2.80
2019-05-14T00:57:01.561Z,3.20
2019-05-14T00:58:02.327Z,2.60
2019-05-14T00:59:01.423Z,3.60
2019-05-14T01:00:01.200Z,3.40
2019-05-14T01:01:01.633Z,3.20
2019-05-14T01:02:03.102Z,3.10
2019-05-14T01:03:02.055Z,3.10
2019-05-14T01:04:01.307Z,3.60
2019-05-14T01:05:01.905Z,3.30
2019-05-14T01:06:02.963Z,3.20
2019-05-14T01:07:01.599Z,3.50
2019-05-14T01:08:01.943Z,3.70
2019-05-14T01:09:01.289Z,3.10
2019-05-14T01:10:01.327Z,3.50
2019-05-14T01:11:01.634Z,3.90
2019-05-14T01:12:01.787Z,3.20
2019-05-14T01:13:01.151Z,3.70
2019-05-14T01:14:01.686Z,3.70
2019-05-14T01:15:09.580Z,3.50
2019-05-14T01:16:01.522Z,3.70
2019-05-14T01:17:02.012Z,3.50
2019-05-14T01:18:02.219Z,3.60
2019-05-14T01:19:02.056Z,3.40
2019-05-14T01:20:02.990Z,3.90
2019-05-14T01:21:01.072Z,3.50
2019-05-14T01:22:01.732Z,3.40
2019-05-14T01:23:02.262Z,3.20
2019-05-14T01:24:01.988Z,3.30
2019-05-14T01:25:01.569Z,3.90
2019-05-14T01:26:02.382Z,3.80
2019-05-14T01:27:01.610Z,3.10
2019-05-14T01:28:02.140Z,3.60
2019-05-14T01:29:01.440Z,3.60
2019-05-14T01:30:02.097Z,3.60
2019-05-14T01:31:01.179Z,3.70
2019-05-14T01:32:01.250Z,3.70
2019-05-14T01:33:01.821Z,3.40
2019-05-14T01:34:02.189Z,4.00
2019-05-14T01:35:01.352Z,3.50
2019-05-14T01:36:02.039Z,3.70
2019-05-14T01:37:02.237Z,3.60
2019-05-14T01:38:02.417Z,3.60
2019-05-14T01:39:01.832Z,3.70
2019-05-14T01:40:01.133Z,3.80
2019-05-14T01:41:01.829Z,3.60
2019-05-14T01:42:02.203Z,3.80
2019-05-14T01:43:02.376Z,3.70
2019-05-14T01:44:01.735Z,3.50
2019-05-14T01:45:02.413Z,3.80
2019-05-14T01:46:02.070Z,3.80
2019-05-14T01:47:01.781Z,3.60
2019-05-14T01:48:01.251Z,3.50
2019-05-14T01:49:01.528Z,4.00
2019-05-14T01:50:01.968Z,3.70
2019-05-14T01:51:01.574Z,3.40
2019-05-14T01:52:01.674Z,3.90
2019-05-14T01:53:01.210Z,4.10
2019-05-14T01:54:01.521Z,4.10
2019-05-14T01:55:01.995Z,3.80
2019-05-14T01:56:01.730Z,3.90
2019-05-14T01:57:01.917Z,4.00
2019-05-14T01:57:59.555Z,4.40
2019-05-14T01:59:01.488Z,3.70
2019-05-14T01:59:59.509Z,4.20
2019-05-14T02:01:01.717Z,4.10
2019-05-14T02:01:59.463Z,4.00
2019-05-14T02:03:01.593Z,4.00
2019-05-14T02:03:59.427Z,4.50
2019-05-14T02:05:01.816Z,4.10
2019-05-14T02:06:01.413Z,4.40
2019-05-14T02:06:59.351Z,4.00
2019-05-14T02:08:01.538Z,3.80
2019-05-14T02:08:59.304Z,4.10
2019-05-14T02:10:01.154Z,3.70
2019-05-14T02:11:01.427Z,3.60
2019-05-14T02:11:59.238Z,4.10
2019-05-14T02:13:01.727Z,4.30
2019-05-14T02:13:59.198Z,4.10
2019-05-14T02:15:01.714Z,4.20
2019-05-14T02:16:01.165Z,4.10
2019-05-14T02:16:59.123Z,4.60
2019-05-14T02:17:59.101Z,3.90
2019-05-14T02:19:01.220Z,4.50
2019-05-14T02:19:59.056Z,3.80
2019-05-14T02:21:01.333Z,4.20
2019-05-14T02:21:59.014Z,4.60
2019-05-14T02:23:01.321Z,4.50
2019-05-14T02:23:58.964Z,3.90
2019-05-14T02:24:58.943Z,3.90
2019-05-14T02:25:58.920Z,4.00
2019-05-14T02:26:58.907Z,4.10
2019-05-14T02:28:01.166Z,3.90
2019-05-14T02:28:58.849Z,4.20
2019-05-14T02:30:01.483Z,4.20
2019-05-14T02:31:03.150Z,4.10
2019-05-14T02:31:59.032Z,4.30
2019-05-14T02:32:59.555Z,3.90
2019-05-14T02:33:59.168Z,4.10
2019-05-14T02:34:59.041Z,3.70
2019-05-14T02:35:59.905Z,4.20
2019-05-14T02:37:00.363Z,3.50
2019-05-14T02:37:59.648Z,3.70
2019-05-14T02:39:00.315Z,4.30
2019-05-14T02:39:59.652Z,4.40
2019-05-14T02:40:59.976Z,4.60
2019-05-14T02:41:59.085Z,4.10
2019-05-14T02:42:59.277Z,3.80
2019-05-14T02:43:59.437Z,3.70
2019-05-14T02:44:59.263Z,3.70
2019-05-14T02:46:10.051Z,3.60
2019-05-14T02:46:59.180Z,3.90
2019-05-14T02:48:00.418Z,3.50
2019-05-14T02:48:59.540Z,3.90
2019-05-14T02:49:58.944Z,3.40
2019-05-14T02:50:59.811Z,4.30
2019-05-14T02:51:58.974Z,3.90
2019-05-14T02:52:59.796Z,4.20
2019-05-14T02:53:59.148Z,4.10
2019-05-14T02:54:59.674Z,4.40
2019-05-14T02:55:59.265Z,4.20
2019-05-14T02:56:59.932Z,4.60
2019-05-14T02:57:59.869Z,4.80
2019-05-14T02:59:00.457Z,4.70
2019-05-14T02:59:59.713Z,4.50
2019-05-14T03:01:00.435Z,4.10
2019-05-14T03:01:59.062Z,4.60
2019-05-14T03:02:59.888Z,4.40
2019-05-14T03:03:59.875Z,5.40
2019-05-14T03:04:59.236Z,5.20
2019-05-14T03:06:00.395Z,4.20
2019-05-14T03:06:59.233Z,4.70
2019-05-14T03:07:59.792Z,5.30
2019-05-14T03:08:59.966Z,4.80
2019-05-14T03:09:59.394Z,4.90
2019-05-14T03:11:00.236Z,4.80
2019-05-14T03:11:59.527Z,5.10
2019-05-14T03:12:59.024Z,5.10
2019-05-14T03:13:59.859Z,4.40
2019-05-14T03:14:58.920Z,4.80
2019-05-14T03:15:59.468Z,4.80
2019-05-14T03:16:59.494Z,4.90
2019-05-14T03:18:00.020Z,4.40
2019-05-14T03:18:59.514Z,5.10
2019-05-14T03:20:00.084Z,4.50
2019-05-14T03:21:00.849Z,4.90
2019-05-14T03:22:00.206Z,4.90
2019-05-14T03:23:07.579Z,5.10
2019-05-14T03:24:00.745Z,4.50
2019-05-14T03:24:59.764Z,4.70
2019-05-14T03:26:00.512Z,5.10
2019-05-14T03:26:58.703Z,4.60
2019-05-14T03:27:59.833Z,4.30
2019-05-14T03:29:00.148Z,5.10
2019-05-14T03:29:58.581Z,4.50
2019-05-14T03:31:02.743Z,4.80
2019-05-14T03:32:02.507Z,5.00
2019-05-14T03:33:02.609Z,4.90
2019-05-14T03:34:02.424Z,4.60
2019-05-14T03:35:02.935Z,4.90
2019-05-14T03:36:07.174Z,4.80
2019-05-14T03:37:02.497Z,5.30
2019-05-14T03:38:00.168Z,5.10
2019-05-14T03:38:59.375Z,5.50
2019-05-14T03:39:59.478Z,5.00
2019-05-14T03:40:59.991Z,5.40
2019-05-14T03:41:59.060Z,5.10
2019-05-14T03:42:59.841Z,5.30
2019-05-14T03:43:59.809Z,5.40
2019-05-14T03:44:59.699Z,5.30
2019-05-14T03:45:59.312Z,5.10
2019-05-14T03:47:04.453Z,5.30
2019-05-14T03:47:58.845Z,5.20
2019-05-14T03:48:59.976Z,5.10
2019-05-14T03:49:58.807Z,5.30
2019-05-14T03:51:00.165Z,5.20
2019-05-14T03:52:00.048Z,5.40
2019-05-14T03:52:59.421Z,5.10
2019-05-14T03:54:06.557Z,5.20
2019-05-14T03:55:01.162Z,5.10
2019-05-14T03:55:59.701Z,5.50
2019-05-14T03:57:00.124Z,5.20
2019-05-14T03:57:59.566Z,5.20
2019-05-14T03:58:59.722Z,5.60
2019-05-14T03:59:59.845Z,6.20
2019-05-14T04:01:00.002Z,5.60
2019-05-14T04:01:59.590Z,5.20
2019-05-14T04:03:00.003Z,5.40
2019-05-14T04:03:59.301Z,5.50
2019-05-14T04:04:59.779Z,5.70
2019-05-14T04:05:59.365Z,6.00
2019-05-14T04:06:59.709Z,6.00
2019-05-14T04:07:59.807Z,5.40
2019-05-14T04:09:00.274Z,6.20
2019-05-14T04:09:59.331Z,5.90
2019-05-14T04:10:59.149Z,5.60
2019-05-14T04:11:59.378Z,5.70
2019-05-14T04:12:59.678Z,5.70
2019-05-14T04:13:59.879Z,5.70
2019-05-14T04:14:59.395Z,5.80
2019-05-14T04:15:59.789Z,5.90
2019-05-14T04:17:06.977Z,5.70
2019-05-14T04:17:59.556Z,5.80
2019-05-14T04:18:59.244Z,6.20
2019-05-14T04:19:59.709Z,6.20
2019-05-14T04:20:59.345Z,6.50
2019-05-14T04:21:59.617Z,5.90
2019-05-14T04:22:56.231Z,5.60
2019-05-14T04:23:58.817Z,6.10
2019-05-14T04:24:58.950Z,5.80
2019-05-14T04:25:56.159Z,5.90
2019-05-14T04:27:06.245Z,6.30
2019-05-14T04:27:59.583Z,5.50
2019-05-14T04:28:56.089Z,6.20
2019-05-14T04:29:58.757Z,5.80
2019-05-14T04:30:59.364Z,6.80
2019-05-14T04:31:56.022Z,6.00
2019-05-14T04:32:59.192Z,6.50
2019-05-14T04:33:58.978Z,6.60
2019-05-14T04:34:59.451Z,6.50
2019-05-14T04:35:55.926Z,7.00
2019-05-14T04:36:59.094Z,6.30
2019-05-14T04:37:58.715Z,6.90
2019-05-14T04:38:55.863Z,6.20
2019-05-14T04:39:59.128Z,6.50
2019-05-14T04:40:55.811Z,6.50
2019-05-14T04:41:55.797Z,6.10
2019-05-14T04:42:59.053Z,6.60
2019-05-14T04:43:59.188Z,6.30
2019-05-14T04:44:55.721Z,6.30
2019-05-14T04:45:58.864Z,7.10
2019-05-14T04:46:55.670Z,6.30
2019-05-14T04:47:55.647Z,6.10
2019-05-14T04:48:58.900Z,6.50
2019-05-14T04:49:55.599Z,6.30
2019-05-14T04:50:55.577Z,6.10
2019-05-14T04:51:55.556Z,6.70
2019-05-14T04:52:55.538Z,6.80
2019-05-14T04:53:55.513Z,7.10
2019-05-14T04:54:55.485Z,6.30
2019-05-14T04:55:55.467Z,6.10
2019-05-14T04:56:55.438Z,6.80
2019-05-14T04:57:55.415Z,6.60
2019-05-14T04:58:55.392Z,7.00
2019-05-14T04:59:55.378Z,6.20
2019-05-14T05:00:55.360Z,6.00
2019-05-14T05:01:55.321Z,6.50
2019-05-14T05:02:55.304Z,5.90
2019-05-14T05:03:55.277Z,6.40
2019-05-14T05:04:55.263Z,6.70
2019-05-14T05:05:55.233Z,6.40
2019-05-14T05:06:55.205Z,6.70
2019-05-14T05:07:55.186Z,6.30
2019-05-14T05:08:55.158Z,7.60
2019-05-14T05:09:55.140Z,6.90
2019-05-14T05:10:55.118Z,6.60
2019-05-14T05:11:55.087Z,7.20
2019-05-14T05:12:55.064Z,7.20
2019-05-14T05:13:55.071Z,8.20
2019-05-14T05:14:55.032Z,7.40
2019-05-14T05:15:54.999Z,7.20
2019-05-14T05:16:54.974Z,8.10
2019-05-14T05:17:54.955Z,7.50
2019-05-14T05:18:54.929Z,8.50
2019-05-14T05:19:54.904Z,7.60
2019-05-14T05:20:54.880Z,8.80
2019-05-14T05:21:54.856Z,8.70
2019-05-14T05:22:54.832Z,7.80
2019-05-14T05:23:54.811Z,7.30
2019-05-14T05:24:54.787Z,7.40
2019-05-14T05:25:54.773Z,7.30
2019-05-14T05:26:54.740Z,6.70
2019-05-14T05:27:56.511Z,7.40
2019-05-14T05:29:05.536Z,7.00
2019-05-14T05:29:54.670Z,7.00
2019-05-14T05:30:54.649Z,7.60
2019-05-14T05:31:54.632Z,7.70
2019-05-14T05:32:54.605Z,7.60
2019-05-14T05:33:54.582Z,7.10
2019-05-14T05:34:54.559Z,6.70
2019-05-14T05:35:54.538Z,7.60
2019-05-14T05:36:54.508Z,7.30
2019-05-14T05:37:54.486Z,7.50
2019-05-14T05:38:54.462Z,7.40
2019-05-14T05:39:54.446Z,7.10
2019-05-14T05:40:56.698Z,7.90
2019-05-14T05:41:54.393Z,7.90
2019-05-14T05:42:54.371Z,8.10
2019-05-14T05:43:54.362Z,8.00
2019-05-14T05:44:54.324Z,7.50
2019-05-14T05:45:54.302Z,8.20
2019-05-14T05:46:54.278Z,8.50
2019-05-14T05:47:58.207Z,8.70
2019-05-14T05:48:54.231Z,8.70
2019-05-14T05:49:54.208Z,8.50
2019-05-14T05:50:54.187Z,8.90
2019-05-14T05:51:54.161Z,9.00
2019-05-14T05:52:54.144Z,8.50
2019-05-14T05:53:54.127Z,8.30
2019-05-14T05:54:54.093Z,8.50
2019-05-14T05:55:54.080Z,8.40
2019-05-14T05:56:54.045Z,8.00
2019-05-14T05:57:54.029Z,8.20
2019-05-14T05:58:53.998Z,8.70
2019-05-14T05:59:53.982Z,8.40
2019-05-14T06:00:53.954Z,8.50
2019-05-14T06:01:54.383Z,7.40
2019-05-14T06:02:53.919Z,7.80
2019-05-14T06:03:53.887Z,7.80
2019-05-14T06:04:53.859Z,8.10
2019-05-14T06:05:53.837Z,7.30
2019-05-14T06:06:53.840Z,7.00
2019-05-14T06:07:53.799Z,7.60
2019-05-14T06:08:53.772Z,7.50
2019-05-14T06:09:53.745Z,8.60
2019-05-14T06:10:53.723Z,8.20
2019-05-14T06:11:53.699Z,7.00
2019-05-14T06:12:53.684Z,7.50
2019-05-14T06:13:53.653Z,7.90
2019-05-14T06:14:53.629Z,7.50
2019-05-14T06:15:53.608Z,7.00
2019-05-14T06:16:53.582Z,7.00
2019-05-14T06:17:53.560Z,7.60
2019-05-14T06:18:53.537Z,7.10
2019-05-14T06:19:53.518Z,6.70
2019-05-14T06:20:53.489Z,6.70
2019-05-14T06:21:53.476Z,7.00
2019-05-14T06:22:53.445Z,6.30
2019-05-14T06:23:53.424Z,6.70
2019-05-14T06:24:53.397Z,6.50
2019-05-14T06:25:53.379Z,6.30
2019-05-14T06:26:53.351Z,7.00
2019-05-14T06:27:53.329Z,6.70
2019-05-14T06:28:53.305Z,6.20
2019-05-14T06:29:54.489Z,6.80
2019-05-14T06:30:53.260Z,7.00
2019-05-14T06:31:53.236Z,6.50
2019-05-14T06:32:53.213Z,7.30
2019-05-14T06:33:53.196Z,6.80
2019-05-14T06:34:53.171Z,9.30
2019-05-14T06:35:53.154Z,7.70
2019-05-14T06:36:53.128Z,9.40
2019-05-14T06:37:53.101Z,7.90
2019-05-14T06:38:53.099Z,7.00
2019-05-14T06:39:53.055Z,6.50
2019-05-14T06:40:53.034Z,7.00
2019-05-14T06:41:53.008Z,7.10
2019-05-14T06:42:53.032Z,6.70
2019-05-14T06:43:52.965Z,7.50
2019-05-14T06:44:52.946Z,6.90
2019-05-14T06:45:52.919Z,6.60
2019-05-14T06:46:53.067Z,6.40
2019-05-14T06:47:52.874Z,7.20
2019-05-14T06:48:52.854Z,7.30
2019-05-14T06:49:52.829Z,6.30
2019-05-14T06:50:52.805Z,6.80
2019-05-14T06:51:52.783Z,6.40
2019-05-14T06:52:52.761Z,7.70
2019-05-14T06:53:52.737Z,6.80
2019-05-14T06:54:52.726Z,7.40
2019-05-14T06:55:52.696Z,7.90
2019-05-14T06:56:52.669Z,6.90
2019-05-14T06:57:52.647Z,6.70
2019-05-14T06:58:52.624Z,7.20
2019-05-14T06:59:52.607Z,6.90
2019-05-14T07:00:52.580Z,6.30
2019-05-14T07:01:52.556Z,7.50
2019-05-14T07:02:52.540Z,7.30
2019-05-14T07:03:52.515Z,6.40
2019-05-14T07:04:52.486Z,7.00
2019-05-14T07:05:52.466Z,6.90
2019-05-14T07:06:52.444Z,7.40
2019-05-14T07:07:52.422Z,6.50
2019-05-14T07:08:52.902Z,6.80
2019-05-14T07:09:52.381Z,6.60
2019-05-14T07:10:52.354Z,7.10
2019-05-14T07:11:52.339Z,6.90
2019-05-14T07:12:52.309Z,7.30
2019-05-14T07:13:52.288Z,6.40
2019-05-14T07:14:52.265Z,6.80
2019-05-14T07:15:52.244Z,6.10
2019-05-14T07:16:52.221Z,6.80
2019-05-14T07:17:52.198Z,6.50
2019-05-14T07:18:54.082Z,6.20
2019-05-14T07:19:52.157Z,6.40
2019-05-14T07:20:52.135Z,6.80
2019-05-14T07:21:52.109Z,7.00
2019-05-14T07:22:52.088Z,6.50
2019-05-14T07:23:52.067Z,6.40
2019-05-14T07:24:52.043Z,7.00
2019-05-14T07:25:52.021Z,6.60
2019-05-14T07:26:52.006Z,6.80
2019-05-14T07:27:51.982Z,6.60
2019-05-14T07:28:51.964Z,6.40
2019-05-14T07:29:51.934Z,6.10
2019-05-14T07:30:51.914Z,6.90
2019-05-14T07:31:51.891Z,6.00
2019-05-14T07:32:51.889Z,6.20
2019-05-14T07:33:51.846Z,5.70
2019-05-14T07:34:51.824Z,6.10
2019-05-14T07:35:51.810Z,6.40
2019-05-14T07:36:51.782Z,5.60
2019-05-14T07:37:51.772Z,6.60
2019-05-14T07:38:51.739Z,6.10
2019-05-14T07:39:51.721Z,6.30
2019-05-14T07:40:51.697Z,6.20
2019-05-14T07:41:51.674Z,6.50
2019-05-14T07:42:51.654Z,5.80
2019-05-14T07:43:51.635Z,6.00
2019-05-14T07:44:51.607Z,5.60
2019-05-14T07:45:51.585Z,6.20
2019-05-14T07:46:51.567Z,5.60
2019-05-14T07:47:51.542Z,5.60
2019-05-14T07:49:04.390Z,5.30
2019-05-14T07:49:51.498Z,5.40
2019-05-14T07:50:52.189Z,5.10
2019-05-14T07:51:51.469Z,5.30
2019-05-14T07:52:51.436Z,5.00
2019-05-14T07:53:51.414Z,5.70
2019-05-14T07:54:51.398Z,6.30
2019-05-14T07:55:51.391Z,5.70
2019-05-14T07:56:53.048Z,5.10
2019-05-14T07:57:51.330Z,5.20
2019-05-14T07:58:51.311Z,4.70
2019-05-14T07:59:51.293Z,5.20
2019-05-14T08:00:51.279Z,5.20
2019-05-14T08:01:51.248Z,5.30
2019-05-14T08:02:51.226Z,5.50
2019-05-14T08:03:51.202Z,5.50
2019-05-14T08:04:51.183Z,5.00
2019-05-14T08:05:51.163Z,4.50
2019-05-14T08:06:51.143Z,5.10
2019-05-14T08:07:51.120Z,5.70
2019-05-14T08:08:51.101Z,5.30
2019-05-14T08:09:51.078Z,5.20
2019-05-14T08:10:51.057Z,5.00
2019-05-14T08:11:51.044Z,5.50
2019-05-14T08:12:51.017Z,5.30
2019-05-14T08:13:50.994Z,5.40
2019-05-14T08:15:10.901Z,5.30
2019-05-14T08:15:50.952Z,5.50
2019-05-14T08:16:50.934Z,5.70
2019-05-14T08:17:50.911Z,5.80
2019-05-14T08:18:50.892Z,5.40
2019-05-14T08:19:50.872Z,5.00
2019-05-14T08:20:50.854Z,5.20
2019-05-14T08:21:50.830Z,4.40
2019-05-14T08:22:50.812Z,5.00
2019-05-14T08:23:50.790Z,4.50
2019-05-14T08:24:50.767Z,4.90
2019-05-14T08:25:50.752Z,5.10
2019-05-14T08:26:50.725Z,5.20
2019-05-14T08:27:50.712Z,5.10
2019-05-14T08:28:50.683Z,4.90
2019-05-14T08:29:50.670Z,5.50
2019-05-14T08:30:50.651Z,5.20
2019-05-14T08:31:50.627Z,4.50
2019-05-14T08:32:50.600Z,5.00
2019-05-14T08:33:50.583Z,4.20
2019-05-14T08:34:50.560Z,4.70
2019-05-14T08:35:50.543Z,5.50
2019-05-14T08:36:50.522Z,4.90
2019-05-14T08:38:03.471Z,4.80
2019-05-14T08:38:50.484Z,5.40
2019-05-14T08:39:50.461Z,4.70
2019-05-14T08:40:50.437Z,4.80
2019-05-14T08:41:59.602Z,4.40
2019-05-14T08:42:50.398Z,4.70
2019-05-14T08:43:50.377Z,4.30
2019-05-14T08:44:51.445Z,4.40
2019-05-14T08:45:50.339Z,4.50
2019-05-14T08:46:50.315Z,4.30
2019-05-14T08:47:50.295Z,5.30
2019-05-14T08:48:50.274Z,4.30
2019-05-14T08:49:50.996Z,4.80
2019-05-14T08:50:50.231Z,4.60
2019-05-14T08:51:50.213Z,4.80
2019-05-14T08:52:50.191Z,4.50
2019-05-14T08:53:50.730Z,4.50
2019-05-14T08:55:05.421Z,4.70
2019-05-14T08:55:50.137Z,4.40
2019-05-14T08:56:50.115Z,3.90
2019-05-14T08:57:50.245Z,4.20
2019-05-14T08:58:50.076Z,4.50
2019-05-14T08:59:50.049Z,4.50
2019-05-14T09:00:50.028Z,4.20
2019-05-14T09:02:02.353Z,4.90
2019-05-14T09:02:49.997Z,4.50
2019-05-14T09:03:50.015Z,4.20
2019-05-14T09:04:53.852Z,4.60
2019-05-14T09:05:49.927Z,4.90
2019-05-14T09:06:49.906Z,5.00
2019-05-14T09:07:49.892Z,4.60
2019-05-14T09:08:50.171Z,4.80
2019-05-14T09:09:49.847Z,5.40
2019-05-14T09:10:49.941Z,4.80
2019-05-14T09:11:50.532Z,5.30
2019-05-14T09:12:49.789Z,5.20
2019-05-14T09:13:49.772Z,5.10
2019-05-14T09:14:49.751Z,4.80
2019-05-14T09:15:49.724Z,4.90
2019-05-14T09:16:50.978Z,4.90
2019-05-14T09:17:49.685Z,5.60
2019-05-14T09:18:49.664Z,4.90
2019-05-14T09:20:02.179Z,5.10
2019-05-14T09:20:49.621Z,4.40
2019-05-14T09:21:49.728Z,3.90
2019-05-14T09:22:49.585Z,3.80
2019-05-14T09:23:49.568Z,4.60
2019-05-14T09:24:49.541Z,4.20
2019-05-14T09:25:53.230Z,4.20
2019-05-14T09:26:49.503Z,3.80
2019-05-14T09:27:49.569Z,3.90
2019-05-14T09:28:49.458Z,4.40
2019-05-14T09:29:49.442Z,4.10
2019-05-14T09:30:49.421Z,4.30
2019-05-14T09:31:49.725Z,4.40
2019-05-14T09:32:49.604Z,4.00
2019-05-14T09:33:49.733Z,3.40
2019-05-14T09:34:49.341Z,2.80
2019-05-14T09:35:49.591Z,3.60
2019-05-14T09:36:49.304Z,3.40
2019-05-14T09:37:51.291Z,3.60
2019-05-14T09:38:49.352Z,3.20
2019-05-14T09:39:49.243Z,3.50
2019-05-14T09:40:49.218Z,2.90
2019-05-14T09:41:49.201Z,3.10
2019-05-14T09:42:49.923Z,3.10
2019-05-14T09:43:49.158Z,3.30
2019-05-14T09:44:49.219Z,3.00
2019-05-14T09:45:49.123Z,3.30
2019-05-14T09:46:49.981Z,3.50
2019-05-14T09:47:50.767Z,4.30
2019-05-14T09:48:49.061Z,3.20
2019-05-14T09:49:49.275Z,3.20
2019-05-14T09:50:49.113Z,3.20
2019-05-14T09:51:49.005Z,3.60
2019-05-14T09:52:49.451Z,3.20
2019-05-14T09:53:49.254Z,3.50
2019-05-14T09:54:49.647Z,3.70
2019-05-14T09:55:49.217Z,3.50
2019-05-14T09:56:48.903Z,3.40
2019-05-14T09:57:49.197Z,3.70
2019-05-14T09:58:49.463Z,3.70
2019-05-14T09:59:48.844Z,3.80
2019-05-14T10:00:48.824Z,3.50
2019-05-14T10:01:50.619Z,3.70
2019-05-14T10:02:49.434Z,3.40
2019-05-14T10:03:49.543Z,3.50
2019-05-14T10:04:49.206Z,3.80
2019-05-14T10:05:50.141Z,3.30
2019-05-14T10:06:48.716Z,3.50
2019-05-14T10:07:49.465Z,3.90
2019-05-14T10:08:48.770Z,3.30
2019-05-14T10:09:49.233Z,3.50
2019-05-14T10:10:48.984Z,3.20
2019-05-14T10:11:48.771Z,3.20
2019-05-14T10:12:54.174Z,3.40
2019-05-14T10:13:48.608Z,3.00
2019-05-14T10:14:48.836Z,3.40
2019-05-14T10:15:48.712Z,3.40
2019-05-14T10:16:49.177Z,3.60
2019-05-14T10:17:49.984Z,3.00
2019-05-14T10:18:49.763Z,3.40
2019-05-14T10:19:49.851Z,3.10
2019-05-14T10:20:49.373Z,3.20
2019-05-14T10:21:49.335Z,3.30
2019-05-14T10:22:48.400Z,3.20
2019-05-14T10:23:48.385Z,2.60
2019-05-14T10:24:48.367Z,2.80
2019-05-14T10:25:48.356Z,3.00
2019-05-14T10:26:49.184Z,3.20
2019-05-14T10:27:48.686Z,2.60
2019-05-14T10:28:48.642Z,2.80
2019-05-14T10:29:48.365Z,2.80
2019-05-14T10:30:49.101Z,3.30
2019-05-14T10:31:48.681Z,3.40
2019-05-14T10:32:49.296Z,2.90
2019-05-14T10:33:48.717Z,2.70
2019-05-14T10:34:48.654Z,2.80
2019-05-14T10:35:48.570Z,3.20
2019-05-14T10:36:48.134Z,2.80
2019-05-14T10:37:48.127Z,3.10
2019-05-14T10:38:48.100Z,2.40
2019-05-14T10:39:48.087Z,2.70
2019-05-14T10:40:48.056Z,2.60
2019-05-14T10:41:48.044Z,2.80
2019-05-14T10:42:49.480Z,2.80
2019-05-14T10:43:49.557Z,2.70
2019-05-14T10:44:47.984Z,2.70
2019-05-14T10:45:49.440Z,2.50
2019-05-14T10:46:47.944Z,2.50
2019-05-14T10:47:49.396Z,2.90
2019-05-14T10:48:47.910Z,2.80
2019-05-14T10:49:47.892Z,2.80
2019-05-14T10:50:59.016Z,2.70
2019-05-14T10:51:48.031Z,2.90
2019-05-14T10:52:48.869Z,2.40
2019-05-14T10:53:48.820Z,2.20
2019-05-14T10:54:55.469Z,2.50
2019-05-14T10:55:48.584Z,1.90
2019-05-14T10:56:49.491Z,2.40
2019-05-14T10:57:51.428Z,2.20
2019-05-14T10:58:49.075Z,2.80
2019-05-14T10:59:47.692Z,2.10
2019-05-14T11:00:49.490Z,2.20
2019-05-14T11:01:47.665Z,2.40
2019-05-14T11:02:49.186Z,2.30
2019-05-14T11:03:48.426Z,3.00
2019-05-14T11:04:48.377Z,2.60
2019-05-14T11:05:48.162Z,2.70
2019-05-14T11:06:49.110Z,2.40
2019-05-14T11:07:48.179Z,2.60
2019-05-14T11:08:49.125Z,2.60
2019-05-14T11:09:48.613Z,3.20
2019-05-14T11:10:49.866Z,2.90
2019-05-14T11:11:47.467Z,2.70
2019-05-14T11:12:50.164Z,2.20
2019-05-14T11:13:47.431Z,2.90
2019-05-14T11:14:49.420Z,2.50
2019-05-14T11:15:48.623Z,3.10
2019-05-14T11:16:48.544Z,2.70
2019-05-14T11:17:48.728Z,3.00
2019-05-14T11:18:49.643Z,2.80
2019-05-14T11:19:47.890Z,2.50
2019-05-14T11:20:51.518Z,2.80
2019-05-14T11:21:48.409Z,2.80
2019-05-14T11:22:49.144Z,2.70
2019-05-14T11:23:49.125Z,2.50
2019-05-14T11:24:49.197Z,2.60
2019-05-14T11:25:48.760Z,2.60
2019-05-14T11:26:48.849Z,3.30
2019-05-14T11:27:49.340Z,2.80
2019-05-14T11:28:49.101Z,2.90
2019-05-14T11:29:49.111Z,3.20
2019-05-14T11:30:49.445Z,2.30
2019-05-14T11:31:48.457Z,2.50
2019-05-14T11:32:49.291Z,2.80
2019-05-14T11:33:49.418Z,2.80
2019-05-14T11:34:47.027Z,2.90
2019-05-14T11:35:47.012Z,2.70
2019-05-14T11:36:49.450Z,2.60
2019-05-14T11:37:48.034Z,3.00
2019-05-14T11:38:46.964Z,3.00
2019-05-14T11:39:48.697Z,2.50
2019-05-14T11:40:49.465Z,3.10
2019-05-14T11:41:49.121Z,2.70
2019-05-14T11:42:49.318Z,2.60
2019-05-14T11:43:49.378Z,3.00
2019-05-14T11:44:48.826Z,3.00
2019-05-14T11:45:48.466Z,2.70
2019-05-14T11:46:52.103Z,2.50
2019-05-14T11:47:48.787Z,2.40
2019-05-14T11:48:49.047Z,2.70
2019-05-14T11:49:49.147Z,2.30
2019-05-14T11:50:49.259Z,2.60
2019-05-14T11:52:00.643Z,2.50
2019-05-14T11:52:48.417Z,2.70
2019-05-14T11:53:49.191Z,2.60
2019-05-14T11:54:49.216Z,3.50
2019-05-14T11:55:49.781Z,2.80
2019-05-14T11:56:48.317Z,3.40
2019-05-14T11:57:48.556Z,3.70
2019-05-14T11:58:46.573Z,2.90
2019-05-14T11:59:46.553Z,2.40
2019-05-14T12:00:46.562Z,2.70
2019-05-14T12:01:49.198Z,2.40
2019-05-14T12:02:46.509Z,2.90
2019-05-14T12:03:46.476Z,2.70
2019-05-14T12:04:46.460Z,2.90
2019-05-14T12:05:49.126Z,3.00
2019-05-14T12:06:46.422Z,3.10
2019-05-14T12:07:46.401Z,3.00
2019-05-14T12:08:46.381Z,3.00
2019-05-14T12:09:46.366Z,2.70
2019-05-14T12:10:46.368Z,2.70
2019-05-14T12:11:46.333Z,3.10
2019-05-14T12:12:48.330Z,3.00
2019-05-14T12:13:48.660Z,2.80
2019-05-14T12:14:48.379Z,2.90
2019-05-14T12:15:48.562Z,2.80
2019-05-14T12:16:49.218Z,2.40
2019-05-14T12:17:46.216Z,3.10
2019-05-14T12:18:48.355Z,3.20
2019-05-14T12:19:48.308Z,2.50
2019-05-14T12:20:46.164Z,2.80
2019-05-14T12:22:02.742Z,2.60
2019-05-14T12:22:48.473Z,3.50
2019-05-14T12:23:46.102Z,3.10
2019-05-14T12:24:46.084Z,3.00
2019-05-14T12:25:46.065Z,2.20
2019-05-14T12:26:46.047Z,2.80
2019-05-14T12:27:46.025Z,2.70
2019-05-14T12:28:46.006Z,2.90
2019-05-14T12:29:49.460Z,2.80
2019-05-14T12:30:48.738Z,2.80
2019-05-14T12:31:50.348Z,2.60
2019-05-14T12:32:45.931Z,2.80
2019-05-14T12:33:48.649Z,2.30
2019-05-14T12:34:48.702Z,2.60
2019-05-14T12:35:45.876Z,2.30
2019-05-14T12:36:45.873Z,2.30
2019-05-14T12:37:45.840Z,2.00
2019-05-14T12:38:45.823Z,2.80
2019-05-14T12:39:45.800Z,2.50
2019-05-14T12:40:45.782Z,2.60
2019-05-14T12:41:45.760Z,2.40
2019-05-14T12:42:45.751Z,2.80
2019-05-14T12:43:45.723Z,2.70
2019-05-14T12:44:45.707Z,2.40
2019-05-14T12:45:45.685Z,2.70
2019-05-14T12:46:45.668Z,3.20
2019-05-14T12:47:45.657Z,2.80
2019-05-14T12:48:45.637Z,2.10
2019-05-14T12:49:48.146Z,2.50
2019-05-14T12:50:45.593Z,2.50
2019-05-14T12:51:45.573Z,3.10
2019-05-14T12:52:45.561Z,2.70
2019-05-14T12:53:45.538Z,2.20
2019-05-14T12:54:45.519Z,2.60
2019-05-14T12:55:45.500Z,2.60
2019-05-14T12:56:45.481Z,2.70
2019-05-14T12:57:45.466Z,2.50
2019-05-14T12:58:46.099Z,2.30
2019-05-14T12:59:45.425Z,2.90
2019-05-14T13:00:45.404Z,3.10
2019-05-14T13:01:45.385Z,2.40
2019-05-14T13:02:45.367Z,2.30
2019-05-14T13:03:45.352Z,3.00
2019-05-14T13:04:45.330Z,2.80
2019-05-14T13:05:45.311Z,2.60
2019-05-14T13:06:45.291Z,2.60
2019-05-14T13:07:45.274Z,2.70
2019-05-14T13:08:45.253Z,2.50
2019-05-14T13:09:45.235Z,2.50
2019-05-14T13:10:45.214Z,2.30
2019-05-14T13:11:45.196Z,2.70
2019-05-14T13:12:45.180Z,2.10
2019-05-14T13:13:45.176Z,2.20
2019-05-14T13:14:45.143Z,2.80
2019-05-14T13:15:45.120Z,2.60
2019-05-14T13:16:45.101Z,2.50
2019-05-14T13:17:45.080Z,2.20